Time;durP1;ratioP1;P1;durP2;ratioP2;P2;SDS_P1;SDS_P2;PMS_P1;PMS_P2;Temp;Humidity;BMP_temperature;BMP_pressure;BME280_temperature;BME280_humidity;BME280_pressure;Samples;Min_cycle;Max_cycle;Signal;HPM_P1;HPM_P2
2022/11/11 00:01:16;;;;;;;57.05;24.70;;;;;;;9.71;74.71;99970.41;6229507;22;20030;-88
2022/11/11 00:04:00;;;;;;;65.05;27.35;;;;;;;9.58;74.74;99941.91;6270626;22;20041;-92
2022/11/11 00:06:46;;;;;;;60.10;25.35;;;;;;;9.41;75.19;99931.44;6278043;22;20016;-93
2022/11/11 00:09:30;;;;;;;58.78;25.45;;;;;;;9.47;75.45;99935.75;6277729;22;20035;-90
2022/11/11 00:12:15;;;;;;;56.00;26.15;;;;;;;9.68;75.56;99952.69;6254915;22;20089;-90
2022/11/11 00:15:00;;;;;;;59.85;24.98;;;;;;;9.53;76.00;99947.41;6254461;22;20073;-89
2022/11/11 00:26:54;;;;;;;62.08;26.95;;;;;;;9.57;76.88;99940.25;6214377;23;20023;-90
2022/11/11 00:29:39;;;;;;;64.40;26.90;;;;;;;9.51;76.88;99927.78;6214497;23;20021;-88
2022/11/11 00:32:29;;;;;;;67.85;26.45;;;;;;;9.60;76.97;99935.06;6215859;23;20012;-90
2022/11/11 00:38:54;;;;;;;61.17;26.73;;;;;;;9.41;77.95;99935.00;6214363;23;20044;-87
2022/11/11 00:44:16;;;;;;;59.63;25.23;;;;;;;9.29;78.12;99928.28;6214692;23;20055;-92
2022/11/11 00:53:17;;;;;;;65.18;25.40;;;;;;;9.38;77.95;99932.03;6215542;23;20091;-91
2022/11/11 00:56:02;;;;;;;63.47;25.33;;;;;;;9.58;77.85;99956.34;6215764;23;20426;-86
2022/11/11 00:58:47;;;;;;;59.47;24.85;;;;;;;9.36;78.04;99913.19;6213902;23;20370;-89
2022/11/11 01:01:33;;;;;;;55.83;24.17;;;;;;;9.33;77.91;99921.16;6214028;23;20024;-89
2022/11/11 01:04:17;;;;;;;57.70;24.02;;;;;;;9.43;78.21;99933.88;6193146;23;20470;-85
2022/11/11 01:09:48;;;;;;;55.35;24.70;;;;;;;9.55;78.12;99928.84;6215350;23;20025;-89
2022/11/11 01:12:32;;;;;;;47.90;20.65;;;;;;;9.41;77.77;99920.53;6214399;23;20027;-90
2022/11/11 01:15:17;;;;;;;44.42;20.27;;;;;;;9.33;77.96;99907.50;6215750;23;20016;-91
2022/11/11 01:18:02;;;;;;;44.33;20.35;;;;;;;9.51;78.02;99931.31;6193463;23;20029;-92
2022/11/11 01:20:47;;;;;;;43.10;19.55;;;;;;;9.39;78.49;99926.25;6223941;23;20020;-88
2022/11/11 01:23:37;;;;;;;;;;;;;;;9.47;78.72;99946.66;6199171;23;20025;-89
2022/11/11 01:26:24;;;;;;;44.90;18.90;;;;;;;9.28;79.04;99913.03;6214284;23;19920;-89
2022/11/11 01:29:08;;;;;;;39.05;18.38;;;;;;;9.30;79.09;99922.53;6214005;23;20056;-92
2022/11/11 01:31:53;;;;;;;34.35;17.42;;;;;;;9.30;78.91;99899.91;6214127;23;20021;-92
2022/11/11 01:34:38;;;;;;;37.45;16.98;;;;;;;9.40;78.92;99933.38;6214370;23;20036;-91
2022/11/11 01:37:23;;;;;;;36.60;17.13;;;;;;;9.38;79.07;99918.38;6215960;23;20012;-87
2022/11/11 01:40:08;;;;;;;33.83;16.80;;;;;;;9.30;78.87;99908.09;6214788;23;20458;-86
2022/11/11 01:43:18;;;;;;;37.00;16.98;;;;;;;9.49;79.02;99946.38;6215748;23;20443;-89
2022/11/11 01:52:02;;;;;;;40.22;16.52;;;;;;;9.42;79.17;99941.25;6214033;23;20451;-92
2022/11/11 01:54:54;;;;;;;37.17;16.70;;;;;;;9.45;79.44;99951.59;6214273;23;20039;-91
2022/11/11 01:57:59;;;;;;;34.92;16.70;;;;;;;9.25;79.55;99917.16;6213980;23;20525;-89
2022/11/11 02:03:34;;;;;;;34.95;16.25;;;;;;;9.31;79.64;99923.38;6214284;23;20402;-87
2022/11/11 02:06:19;;;;;;;34.47;15.90;;;;;;;9.04;79.32;99889.28;6214026;23;20021;-85
2022/11/11 02:09:06;;;;;;;33.65;15.73;;;;;;;9.21;79.59;99909.84;6213983;23;20536;-87
2022/11/11 02:14:59;;;;;;;34.90;16.42;;;;;;;9.25;79.48;99913.63;6216322;23;20475;-90
2022/11/11 02:17:48;;;;;;;31.85;15.77;;;;;;;9.39;79.52;99931.72;6195188;23;20023;-91
2022/11/11 02:20:37;;;;;;;27.92;15.10;;;;;;;9.46;79.45;99931.38;6217954;23;20040;-91
2022/11/11 02:23:41;;;;;;;34.47;16.38;;;;;;;9.57;79.36;99941.09;6216011;23;20020;-92
2022/11/11 02:26:27;;;;;;;37.83;16.45;;;;;;;9.30;79.46;99922.53;6278504;22;20015;-92
2022/11/11 02:29:16;;;;;;;33.08;15.25;;;;;;;9.43;79.58;99942.06;6255587;22;20015;-87
2022/11/11 02:32:00;;;;;;;31.38;15.30;;;;;;;9.38;79.48;99930.09;6251977;22;20022;-90
2022/11/11 02:34:44;;;;;;;35.67;15.63;;;;;;;9.33;79.50;99907.50;6251663;22;20020;-87
2022/11/11 02:37:29;;;;;;;34.75;15.45;;;;;;;9.27;79.62;99895.84;6234656;22;20393;-89
2022/11/11 02:40:38;;;;;;;31.05;14.35;;;;;;;9.43;79.67;99931.94;6240470;22;20121;-90
2022/11/11 02:43:22;;;;;;;29.85;14.88;;;;;;;9.40;79.86;99927.06;6277869;22;20026;-92
2022/11/11 02:46:07;;;;;;;28.17;13.68;;;;;;;9.43;79.88;99939.34;6251509;22;20041;-92
2022/11/11 02:48:52;;;;;;;28.02;14.05;;;;;;;9.20;79.81;99902.75;6255448;22;20043;-91
2022/11/11 02:51:37;;;;;;;29.42;13.57;;;;;;;9.25;80.18;99908.97;6254932;22;20024;-92
2022/11/11 02:54:21;;;;;;;27.15;12.65;;;;;;;9.27;80.06;99917.69;6251221;22;20038;-92
2022/11/11 02:57:06;;;;;;;30.90;14.07;;;;;;;9.22;80.30;99906.00;6278635;22;20042;-92
2022/11/11 02:59:50;;;;;;;24.35;12.75;;;;;;;9.48;79.97;99940.09;6255413;22;20465;-91
2022/11/11 03:02:35;;;;;;;26.77;14.05;;;;;;;9.36;80.00;99926.84;6279100;22;20043;-92
2022/11/11 03:05:19;;;;;;;29.40;13.73;;;;;;;9.23;80.02;99908.44;6278278;22;20493;-91
2022/11/11 03:08:05;;;;;;;29.90;14.20;;;;;;;9.27;80.29;99912.22;6277557;22;20015;-90
2022/11/11 03:10:50;;;;;;;27.33;12.20;;;;;;;9.11;80.04;99897.94;6255410;22;20445;-89
2022/11/11 03:13:34;;;;;;;27.30;11.77;;;;;;;9.35;80.27;99929.88;6278161;22;20623;-90
2022/11/11 03:19:22;;;;;;;27.35;13.43;;;;;;;9.32;79.67;99903.16;6277123;22;20023;-90
2022/11/11 03:22:07;;;;;;;23.73;12.98;;;;;;;9.34;79.52;99901.78;6255349;22;20023;-91
2022/11/11 03:27:54;;;;;;;23.70;11.75;;;;;;;9.24;79.92;99911.97;6250611;22;20023;-90
2022/11/11 03:30:41;;;;;;;21.92;10.77;;;;;;;9.17;80.29;99915.88;6250429;22;20018;-87
2022/11/11 03:33:26;;;;;;;21.58;11.43;;;;;;;9.06;80.69;99895.25;6255526;22;20038;-87
2022/11/11 03:36:10;;;;;;;24.38;11.85;;;;;;;9.11;80.54;99908.84;6277955;22;20011;-91
2022/11/11 03:41:38;;;;;;;22.63;10.85;;;;;;;9.10;81.02;99911.84;6278839;22;20023;-90
2022/11/11 03:44:23;;;;;;;25.02;12.20;;;;;;;9.05;81.20;99898.28;6230480;22;20020;-93
2022/11/11 03:49:55;;;;;;;22.08;11.45;;;;;;;9.28;81.45;99948.50;6250448;22;20114;-92
2022/11/11 03:52:42;;;;;;;23.48;10.32;;;;;;;9.09;81.16;99913.75;6278075;22;20049;-91
2022/11/11 03:55:28;;;;;;;21.70;10.23;;;;;;;9.14;81.44;99940.19;6258266;22;20020;-88
2022/11/11 03:58:12;;;;;;;24.73;11.15;;;;;;;9.04;81.77;99922.00;6249115;22;20023;-91
2022/11/11 04:00:57;;;;;;;20.85;10.68;;;;;;;9.21;81.81;99953.50;6232732;22;20128;-90
2022/11/11 04:16:08;;;;;;;20.70;9.70;;;;;;;8.99;82.05;99924.78;6250315;22;20357;-87
2022/11/11 04:21:55;;;;;;;20.08;10.50;;;;;;;9.23;82.11;99959.47;6279324;22;20018;-88
2022/11/11 04:27:43;;;;;;;16.60;9.15;;;;;;;8.98;82.63;99931.34;6252575;22;20146;-92
2022/11/11 04:30:28;;;;;;;18.02;9.18;;;;;;;8.72;81.94;99886.31;6253650;22;20016;-90
2022/11/11 04:33:14;;;;;;;21.75;8.98;;;;;;;9.01;82.40;99947.13;6229421;22;20024;-91
2022/11/11 04:35:58;;;;;;;21.27;10.20;;;;;;;9.08;82.37;99963.97;6228716;22;20024;-90
2022/11/11 04:41:46;;;;;;;22.38;10.38;;;;;;;9.06;82.53;99959.91;6250165;22;20623;-88
2022/11/11 04:47:34;;;;;;;19.80;9.88;;;;;;;9.10;82.63;99982.75;6248956;22;20016;-88
2022/11/11 04:50:20;;;;;;;22.88;10.88;;;;;;;9.13;82.95;99983.00;6253241;22;20042;-88
2022/11/11 04:53:06;;;;;;;20.90;10.77;;;;;;;8.92;82.72;99949.66;6227652;22;20016;-89
2022/11/11 04:59:14;;;;;;;19.45;9.48;;;;;;;9.03;83.17;99977.63;6249559;22;20016;-89
2022/11/11 05:05:01;;;;;;;19.67;9.75;;;;;;;9.06;82.66;99987.16;6276638;22;20019;-90
2022/11/11 05:11:10;;;;;;;20.48;10.18;;;;;;;9.13;82.63;99974.81;6130074;23;20021;-88
2022/11/11 05:23:12;;;;;;;21.83;11.10;;;;;;;9.22;82.45;99975.00;6155778;23;20021;-88
2022/11/11 05:25:56;;;;;;;20.42;11.35;;;;;;;9.27;82.34;100002.25;6129652;23;20776;-87
2022/11/11 05:28:41;;;;;;;23.75;10.95;;;;;;;9.10;82.06;99972.66;6152732;23;20017;-87
2022/11/11 05:34:12;;;;;;;19.52;10.07;;;;;;;9.10;82.43;99959.03;6128067;23;20009;-87
2022/11/11 05:36:57;;;;;;;19.25;10.15;;;;;;;9.16;82.34;99968.78;6131409;23;20039;-91
2022/11/11 05:39:42;;;;;;;18.15;9.65;;;;;;;9.21;82.37;99978.03;6153142;23;20064;-88
2022/11/11 05:42:26;;;;;;;19.55;10.02;;;;;;;9.28;82.22;99995.69;6233743;22;20054;-89
2022/11/11 05:45:11;;;;;;;21.88;10.75;;;;;;;9.07;82.55;99972.41;6277342;22;20480;-88
2022/11/11 05:48:00;;;;;;;23.77;12.25;;;;;;;9.03;82.36;99964.00;6230315;22;20020;-87
2022/11/11 05:50:45;;;;;;;23.65;12.45;;;;;;;9.23;82.73;99989.47;6252563;22;20108;-87
2022/11/11 05:53:29;;;;;;;23.20;13.93;;;;;;;9.02;82.49;99967.84;6250930;22;20047;-89
2022/11/11 05:56:14;;;;;;;22.00;13.90;;;;;;;9.13;82.36;99983.00;6230973;22;20485;-89
2022/11/11 05:58:59;;;;;;;32.72;17.55;;;;;;;9.36;82.38;100010.63;6251092;22;20016;-89
2022/11/11 06:01:43;;;;;;;31.33;16.45;;;;;;;9.14;82.20;99975.66;6230439;22;20102;-89
2022/11/11 06:04:28;;;;;;;23.85;13.48;;;;;;;9.34;82.05;100001.94;6251900;22;20209;-89
2022/11/11 06:07:13;;;;;;;25.25;14.55;;;;;;;9.27;81.89;99983.16;6229404;22;20020;-87
2022/11/11 06:10:29;;;;;;;40.72;16.67;;;;;;;9.27;81.34;99983.16;6229680;22;20031;-87
2022/11/11 06:13:08;;;;;;;32.00;15.55;;;;;;;9.26;81.75;99994.34;6278213;22;20016;-89
2022/11/11 06:15:56;;;;;;;26.23;16.67;;;;;;;9.29;81.92;100012.88;6249999;22;20023;-88
2022/11/11 06:18:41;;;;;;;31.20;18.50;;;;;;;9.23;82.16;100006.63;6277993;22;20026;-88
2022/11/11 06:21:26;;;;;;;29.77;17.13;;;;;;;9.29;82.35;100019.16;6259760;22;20028;-93
2022/11/11 06:24:11;;;;;;;27.15;16.20;;;;;;;9.14;82.38;99995.56;6231266;22;20044;-92
2022/11/11 06:32:30;;;;;;;26.10;14.15;;;;;;;9.26;81.93;100006.06;6264940;22;20042;-91
2022/11/11 06:35:14;;;;;;;23.30;12.40;;;;;;;9.18;81.77;100007.50;6240885;22;20020;-91
2022/11/11 06:37:59;;;;;;;28.75;11.73;;;;;;;9.06;81.97;99982.53;6232364;22;20026;-91
2022/11/11 06:40:45;;;;;;;22.30;11.38;;;;;;;9.09;81.51;99981.94;6236264;22;20099;-93
2022/11/11 06:43:30;;;;;;;19.17;9.38;;;;;;;9.41;80.90;100035.16;6263472;22;20020;-91
2022/11/11 06:46:23;;;;;;;18.08;10.10;;;;;;;9.40;81.06;100037.06;6233074;22;20065;-92
2022/11/11 06:51:54;;;;;;;18.35;9.80;;;;;;;9.39;80.95;100020.97;6280182;22;20087;-92
2022/11/11 06:54:39;;;;;;;21.55;10.02;;;;;;;9.36;80.67;100027.00;6231295;22;20022;-92
2022/11/11 06:57:24;;;;;;;18.33;10.23;;;;;;;9.38;80.65;100033.00;6230181;22;20030;-91
2022/11/11 07:00:09;;;;;;;15.55;8.43;;;;;;;9.39;80.39;100043.59;6251791;22;20047;-90
2022/11/11 07:02:57;;;;;;;12.80;8.32;;;;;;;9.43;80.32;100045.75;6231623;22;20016;-92
2022/11/11 07:08:28;;;;;;;17.20;8.85;;;;;;;9.43;80.90;100056.69;6252254;22;20601;-91
2022/11/11 07:11:13;;;;;;;16.60;8.85;;;;;;;9.16;80.94;100008.91;6235001;22;20015;-91
2022/11/11 07:13:57;;;;;;;15.02;8.02;;;;;;;9.45;80.94;100051.75;6231639;22;20512;-88
2022/11/11 07:16:42;;;;;;;16.27;9.10;;;;;;;9.48;80.86;100054.72;6252729;22;20015;-88
2022/11/11 07:19:26;;;;;;;15.20;8.35;;;;;;;9.46;81.26;100040.53;6258510;22;20528;-91
2022/11/11 07:22:12;;;;;;;15.32;8.55;;;;;;;9.48;81.07;100046.53;6230793;22;20106;-93
2022/11/11 07:24:59;;;;;;;16.00;8.40;;;;;;;9.22;80.96;100006.94;6217772;23;20020;-89
2022/11/11 07:27:44;;;;;;;15.80;8.18;;;;;;;9.58;81.16;100043.69;6196213;23;20040;-89
2022/11/11 07:30:29;;;;;;;15.93;7.80;;;;;;;9.38;80.52;100003.78;6196252;23;20023;-91
2022/11/11 07:33:13;;;;;;;17.50;8.68;;;;;;;9.68;80.72;100052.91;6174482;23;20059;-92
2022/11/11 07:35:58;;;;;;;18.25;10.18;;;;;;;9.46;80.76;100026.88;6197191;23;20028;-91
2022/11/11 07:38:42;;;;;;;17.58;8.80;;;;;;;9.63;80.93;100037.38;6216900;23;20022;-88
2022/11/11 07:41:28;;;;;;;20.35;9.27;;;;;;;9.53;80.90;100018.38;6195993;23;20051;-91
2022/11/11 07:44:13;;;;;;;19.33;9.63;;;;;;;9.73;80.86;100047.38;6216747;23;20047;-90
2022/11/11 07:46:57;;;;;;;22.10;10.15;;;;;;;9.68;80.68;100039.25;6196691;23;20024;-90
2022/11/11 07:49:42;;;;;;;18.27;9.63;;;;;;;9.71;80.14;100055.06;6202225;23;20017;-90
2022/11/11 07:55:14;;;;;;;22.15;9.98;;;;;;;9.48;80.08;100032.88;6214725;23;20020;-90
2022/11/11 07:58:00;;;;;;;29.23;11.50;;;;;;;9.67;79.79;100064.91;6216416;23;20027;-90
2022/11/11 08:00:45;;;;;;;24.45;12.43;;;;;;;9.74;79.90;100077.13;6192934;23;20528;-88
2022/11/11 08:03:29;;;;;;;23.52;10.48;;;;;;;9.45;80.12;100047.09;6214681;23;20028;-89
2022/11/11 08:06:21;;;;;;;22.60;10.25;;;;;;;9.45;80.19;100049.84;6193258;23;20012;-90
2022/11/11 08:09:06;;;;;;;18.80;9.77;;;;;;;9.66;80.06;100075.00;6194651;23;20023;-89
2022/11/11 08:14:53;;;;;;;21.25;9.85;;;;;;;9.64;80.16;100072.56;6216621;23;20023;-89
2022/11/11 08:17:39;;;;;;;27.92;10.35;;;;;;;9.72;79.74;100079.31;6216230;23;20020;-89
2022/11/11 08:20:24;;;;;;;20.23;9.48;;;;;;;9.69;80.06;100068.16;6214468;23;20023;-90
2022/11/11 08:23:09;;;;;;;20.58;10.48;;;;;;;9.68;79.67;100058.34;6216022;23;20354;-89
2022/11/11 08:25:53;;;;;;;24.73;9.80;;;;;;;9.77;79.67;100060.16;6219757;22;20019;-88
2022/11/11 08:28:38;;;;;;;22.88;10.77;;;;;;;9.71;79.72;100050.41;6228660;22;20384;-88
2022/11/11 08:31:23;;;;;;;18.88;9.77;;;;;;;9.76;79.33;100063.19;6227976;22;20468;-89
2022/11/11 08:34:07;;;;;;;19.55;10.07;;;;;;;9.72;79.63;100060.22;6230391;22;20015;-88
2022/11/11 08:36:52;;;;;;;16.08;8.85;;;;;;;9.57;79.42;100038.50;6229354;22;20016;-89
2022/11/11 08:39:36;;;;;;;22.15;9.25;;;;;;;9.80;79.26;100058.75;6228594;22;20346;-88
2022/11/11 08:42:21;;;;;;;16.85;9.13;;;;;;;9.71;79.13;100035.94;6254778;22;20023;-88
2022/11/11 08:45:10;;;;;;;21.17;9.02;;;;;;;9.86;78.60;100060.34;6228603;22;20019;-88
2022/11/11 08:47:55;;;;;;;21.80;8.80;;;;;;;9.62;78.76;100031.09;6228670;22;20390;-89
2022/11/11 08:50:40;;;;;;;21.42;9.32;;;;;;;9.55;78.85;100019.72;6229276;22;20027;-89
2022/11/11 08:53:26;;;;;;;26.52;9.45;;;;;;;9.65;78.68;100011.41;6249465;22;20073;-89
2022/11/11 08:56:11;;;;;;;16.83;9.27;;;;;;;9.61;78.22;99996.72;6228209;22;20011;-89
2022/11/11 08:58:56;;;;;;;16.70;8.90;;;;;;;9.79;78.42;100038.03;6229003;22;20081;-89
2022/11/11 09:01:41;;;;;;;15.48;8.00;;;;;;;9.81;78.48;100039.38;6231362;22;20453;-89
2022/11/11 09:04:25;;;;;;;14.38;8.23;;;;;;;9.69;78.05;100016.28;6253732;22;20035;-94
2022/11/11 09:07:10;;;;;;;18.70;9.02;;;;;;;9.96;78.61;100043.00;6256127;22;20020;-93
2022/11/11 09:09:56;;;;;;;18.00;8.43;;;;;;;9.82;77.62;100026.53;6268857;22;20004;-92
2022/11/11 09:12:41;;;;;;;23.42;8.90;;;;;;;9.89;77.75;100035.19;6239243;22;20106;-88
2022/11/11 09:15:26;;;;;;;15.07;7.22;;;;;;;10.02;77.40;100056.31;6261580;22;20015;-94
2022/11/11 09:18:11;;;;;;;15.77;7.60;;;;;;;9.88;77.25;100034.38;6254279;22;20149;-93
2022/11/11 09:20:57;;;;;;;17.63;8.55;;;;;;;9.93;77.32;100033.47;6281816;22;20075;-94
2022/11/11 09:23:42;;;;;;;19.25;8.48;;;;;;;10.07;77.43;100042.63;6257526;22;20022;-89
2022/11/11 09:26:26;;;;;;;16.73;8.23;;;;;;;10.21;77.16;100071.97;6256117;22;20022;-89
2022/11/11 09:29:11;;;;;;;13.48;8.18;;;;;;;9.80;76.87;99993.22;6227992;22;20011;-89
2022/11/11 09:31:55;;;;;;;13.93;7.72;;;;;;;9.93;76.57;100025.28;6249588;22;20041;-89
2022/11/11 09:34:40;;;;;;;15.73;9.13;;;;;;;10.10;76.97;100027.56;6229201;22;20024;-89
2022/11/11 09:37:26;;;;;;;15.00;7.95;;;;;;;10.19;76.77;100049.56;6231324;22;20019;-89
2022/11/11 09:40:18;;;;;;;20.17;8.70;;;;;;;10.24;76.30;100027.66;6229862;22;20024;-90
2022/11/11 09:43:22;;;;;;;16.25;8.70;;;;;;;10.60;75.92;100079.97;6229559;22;20449;-92
2022/11/11 09:46:36;;;;;;;12.70;7.70;;;;;;;10.59;75.64;100081.06;6281120;22;20015;-88
2022/11/11 09:49:42;;;;;;;14.13;7.32;;;;;;;10.42;75.73;100072.53;6231276;22;20024;-91
2022/11/11 09:52:30;;;;;;;16.08;7.57;;;;;;;10.03;75.29;100017.00;6227785;22;20015;-86
2022/11/11 09:55:29;;;;;;;17.52;9.13;;;;;;;10.39;75.97;100084.06;6249004;22;20563;-86
2022/11/11 09:58:27;;;;;;;15.43;8.18;;;;;;;10.10;75.46;100054.88;6279701;22;20026;-91
2022/11/11 10:01:22;;;;;;;13.95;8.13;;;;;;;9.96;75.91;100021.16;6232476;22;20019;-89
2022/11/11 10:04:34;;;;;;;15.75;8.07;;;;;;;10.41;75.87;100084.59;6227234;22;20015;-88
2022/11/11 10:07:40;;;;;;;17.00;9.00;;;;;;;10.25;75.70;100045.69;6255987;22;20018;-88
2022/11/11 10:10:44;;;;;;;17.65;8.05;;;;;;;10.53;75.24;100072.13;6232635;22;20016;-88
2022/11/11 10:13:32;;;;;;;21.70;10.77;;;;;;;10.56;75.63;100073.44;6230758;22;20035;-89
2022/11/11 10:16:19;;;;;;;14.80;7.80;;;;;;;10.54;75.46;100076.47;6205158;22;20034;-88
2022/11/11 10:19:22;;;;;;;17.85;7.70;;;;;;;10.53;75.44;100074.88;6252078;22;20031;-88
2022/11/11 10:22:24;;;;;;;13.23;8.00;;;;;;;10.57;75.28;100075.09;6248708;22;20020;-87
2022/11/11 10:25:12;;;;;;;11.77;7.05;;;;;;;10.60;74.71;100079.16;6233983;22;20019;-90
2022/11/11 10:28:00;;;;;;;12.40;6.55;;;;;;;10.24;74.89;100044.06;6258204;22;20019;-89
2022/11/11 10:30:47;;;;;;;12.95;7.28;;;;;;;10.31;74.78;100044.53;6235670;22;20019;-89
2022/11/11 10:33:37;;;;;;;;;;;;;;;10.54;74.56;100092.88;6229319;22;20016;-89
2022/11/11 10:36:25;;;;;;;14.20;7.15;;;;;;;10.16;75.00;100034.56;6260491;22;19915;-90
2022/11/11 10:39:15;;;;;;;17.80;8.15;;;;;;;10.53;75.49;100101.41;6262486;22;20026;-91
2022/11/11 10:42:00;;;;;;;14.68;8.38;;;;;;;10.41;75.24;100090.06;6237143;22;20055;-90
2022/11/11 10:44:45;;;;;;;21.73;8.00;;;;;;;10.48;75.53;100110.47;6233286;22;20012;-90
2022/11/11 10:47:49;;;;;;;13.80;7.03;;;;;;;10.41;75.50;100120.94;6261052;22;20016;-90
2022/11/11 10:50:58;;;;;;;15.95;7.45;;;;;;;9.99;75.48;100040.53;6232853;22;20055;-89
2022/11/11 10:54:22;;;;;;;14.57;7.85;;;;;;;10.31;75.67;100097.28;6234427;22;20143;-85
2022/11/11 10:57:24;;;;;;;16.67;7.18;;;;;;;10.53;74.81;100132.28;6158435;23;20021;-88
2022/11/11 11:03:41;;;;;;;17.38;7.57;;;;;;;10.40;76.00;100129.41;6153738;23;20390;-89
2022/11/11 11:06:37;;;;;;;16.08;7.97;;;;;;;10.09;76.28;100075.09;6111058;23;20113;-87
2022/11/11 11:10:02;;;;;;;14.38;7.72;;;;;;;10.37;76.32;100117.16;6130716;23;20029;-88
2022/11/11 11:13:04;;;;;;;15.30;7.53;;;;;;;10.40;75.85;100102.09;6108695;23;20021;-88
2022/11/11 11:15:56;;;;;;;12.77;7.80;;;;;;;10.15;75.85;100064.94;6153932;23;20028;-89
2022/11/11 11:18:41;;;;;;;15.02;8.75;;;;;;;10.11;75.81;100056.50;6110394;23;20018;-91
2022/11/11 11:21:25;;;;;;;12.90;7.93;;;;;;;10.31;75.97;100091.81;6137187;23;20017;-89
2022/11/11 11:24:31;;;;;;;13.15;7.93;;;;;;;10.39;76.60;100131.34;6112273;23;20414;-89
2022/11/11 11:27:25;;;;;;;17.25;7.97;;;;;;;10.00;76.59;100072.22;6135142;23;20017;-89
2022/11/11 11:30:16;;;;;;;17.50;7.55;;;;;;;10.07;76.45;100097.25;6158626;22;20019;-88
2022/11/11 11:33:05;;;;;;;16.73;8.18;;;;;;;10.17;76.82;100106.44;6231982;22;20012;-88
2022/11/11 11:35:50;;;;;;;14.70;7.80;;;;;;;10.19;76.48;100123.34;6232550;22;20023;-90
2022/11/11 11:38:46;;;;;;;16.17;7.40;;;;;;;10.11;76.92;100122.88;6247797;22;20051;-87
2022/11/11 11:41:38;;;;;;;16.58;7.70;;;;;;;10.27;76.74;100147.34;6227411;22;20042;-87
2022/11/11 11:44:26;;;;;;;18.08;8.30;;;;;;;10.31;76.86;100148.38;6253268;22;20090;-93
2022/11/11 11:47:27;;;;;;;14.90;7.93;;;;;;;10.29;77.08;100150.59;6238018;22;20103;-88
2022/11/11 11:50:39;;;;;;;13.60;7.18;;;;;;;10.31;76.75;100154.66;6230947;22;20051;-87
2022/11/11 11:53:45;;;;;;;15.43;7.80;;;;;;;10.40;76.87;100148.53;6274691;22;20020;-87
2022/11/11 11:56:39;;;;;;;16.23;7.32;;;;;;;10.15;76.82;100117.66;6229344;22;20616;-87
2022/11/11 12:00:07;;;;;;;16.95;8.57;;;;;;;10.07;77.50;100116.38;6229591;22;20016;-89
2022/11/11 12:03:21;;;;;;;15.55;9.38;;;;;;;10.30;77.58;100142.13;6226174;22;20102;-89
2022/11/11 12:06:35;;;;;;;17.95;8.32;;;;;;;9.96;77.39;100095.72;6229286;22;20023;-90
2022/11/11 12:09:44;;;;;;;14.10;8.35;;;;;;;10.30;77.51;100142.13;6229446;22;20537;-89
2022/11/11 12:12:58;;;;;;;13.05;7.90;;;;;;;10.29;77.32;100124.06;6229070;22;20024;-89
2022/11/11 12:15:57;;;;;;;15.63;8.05;;;;;;;10.04;77.74;100100.56;6277371;22;20015;-90
2022/11/11 12:19:17;;;;;;;13.15;8.30;;;;;;;9.92;78.26;100091.94;6229430;22;20464;-91
2022/11/11 12:22:32;;;;;;;22.52;8.70;;;;;;;10.27;78.21;100125.50;6231892;22;20012;-88
2022/11/11 12:25:50;;;;;;;15.50;7.93;;;;;;;10.34;77.97;100131.41;6231476;22;20046;-91
2022/11/11 12:28:34;;;;;;;18.02;9.20;;;;;;;10.34;78.11;100134.97;6276717;22;20099;-89
2022/11/11 12:31:55;;;;;;;17.42;9.02;;;;;;;10.31;78.13;100132.81;6228354;22;20022;-90
2022/11/11 12:34:59;;;;;;;15.00;8.73;;;;;;;10.21;78.29;100130.16;6227457;22;20026;-87
2022/11/11 12:38:31;;;;;;;16.85;8.32;;;;;;;10.13;78.83;100106.19;6228054;22;20283;-88
2022/11/11 12:41:29;;;;;;;17.60;9.73;;;;;;;10.37;78.23;100119.09;6211350;22;20020;-88
2022/11/11 12:44:16;;;;;;;21.90;9.25;;;;;;;10.22;78.41;100090.78;6274304;22;20015;-87
2022/11/11 12:47:09;;;;;;;17.92;8.75;;;;;;;10.43;78.15;100113.28;6226754;22;20019;-88
2022/11/11 12:50:25;;;;;;;18.05;8.98;;;;;;;10.46;77.76;100118.16;6227574;22;20061;-90
2022/11/11 12:53:28;;;;;;;19.08;9.48;;;;;;;10.42;77.95;100122.56;6256695;22;20027;-87
2022/11/11 12:56:39;;;;;;;14.93;9.07;;;;;;;10.43;77.90;100121.47;6248711;22;20015;-87
2022/11/11 12:59:41;;;;;;;21.13;9.52;;;;;;;10.37;78.18;100122.63;6276815;22;20066;-89
2022/11/11 13:02:37;;;;;;;17.42;9.30;;;;;;;10.36;78.48;100129.19;6256814;22;20035;-89
2022/11/11 13:05:39;;;;;;;;;;;;;;;10.39;78.38;100131.34;6229774;22;20045;-90
2022/11/11 13:08:59;;;;;;;15.70;7.82;;;;;;;10.12;78.04;100083.53;6254141;22;20415;-90
2022/11/11 13:12:12;;;;;;;23.27;10.18;;;;;;;10.44;78.10;100119.53;6277451;22;20023;-90
2022/11/11 13:15:17;;;;;;;17.65;8.63;;;;;;;10.42;78.02;100121.75;6225305;22;20110;-87
2022/11/11 13:18:12;;;;;;;14.75;8.48;;;;;;;10.34;78.20;100120.47;6227436;22;20020;-87
2022/11/11 13:21:06;;;;;;;31.13;9.50;;;;;;;10.13;78.09;100073.41;6251523;22;20028;-87
2022/11/11 13:23:52;;;;;;;14.98;7.60;;;;;;;10.00;78.42;100072.22;6275343;22;20046;-85
2022/11/11 13:26:49;;;;;;;18.63;9.27;;;;;;;10.15;78.30;100084.06;6246719;22;20041;-87
2022/11/11 13:29:52;;;;;;;;;;;;;;;10.44;77.95;100114.06;6226688;22;20070;-88
2022/11/11 13:32:51;;;;;;;16.92;8.02;;;;;;;10.14;77.71;100096.09;6247249;22;20341;-89
2022/11/11 13:36:01;;;;;;;16.30;7.13;;;;;;;10.04;77.97;100086.91;6227435;22;20069;-89
2022/11/11 13:38:50;;;;;;;16.33;8.63;;;;;;;10.14;78.12;100098.84;6226591;22;20016;-90
2022/11/11 13:41:39;;;;;;;14.98;7.90;;;;;;;10.23;78.12;100108.00;6250428;22;20024;-88
2022/11/11 13:44:45;;;;;;;14.85;8.38;;;;;;;10.11;77.93;100086.56;6252056;22;20098;-88
2022/11/11 13:47:37;;;;;;;15.38;8.48;;;;;;;9.74;77.52;100029.91;6246703;22;20022;-87
2022/11/11 13:50:28;;;;;;;15.25;8.43;;;;;;;10.18;77.60;100116.25;6273547;22;20054;-87
2022/11/11 13:53:26;;;;;;;18.42;9.10;;;;;;;10.20;78.02;100131.28;6246369;22;20012;-87
2022/11/11 13:56:27;;;;;;;17.58;8.75;;;;;;;10.00;77.67;100099.53;6250410;22;20327;-87
2022/11/11 13:59:24;;;;;;;14.30;7.75;;;;;;;10.02;77.26;100108.22;6225620;22;20042;-86
2022/11/11 14:02:25;;;;;;;14.40;7.00;;;;;;;10.16;76.95;100129.38;6273383;22;20022;-88
2022/11/11 14:05:09;;;;;;;18.00;8.63;;;;;;;10.19;77.17;100137.00;6225650;22;20020;-89
2022/11/11 14:07:56;;;;;;;11.55;6.68;;;;;;;10.09;76.61;100111.41;6224916;22;20719;-89
2022/11/11 14:10:53;;;;;;;16.35;8.20;;;;;;;10.19;76.48;100115.97;6229645;22;20023;-89
2022/11/11 14:13:39;;;;;;;13.27;7.70;;;;;;;10.18;76.46;100103.41;6278043;22;20026;-89
2022/11/11 14:16:36;;;;;;;19.65;7.82;;;;;;;10.34;76.34;100120.47;6250831;22;20426;-88
2022/11/11 14:19:20;;;;;;;;;;;;;;;10.46;75.55;100120.88;6230780;22;20845;-90
2022/11/11 14:22:26;;;;;;;10.40;5.85;;;;;;;10.35;74.52;100122.91;6253066;22;19922;-89
2022/11/11 14:25:19;;;;;;;;;;;;;;;10.32;74.33;100126.22;6234821;22;20516;-90
2022/11/11 14:28:18;;;;;;;12.43;5.78;;;;;;;9.93;73.73;100076.38;6261700;22;19915;-91
2022/11/11 14:31:13;;;;;;;10.68;5.60;;;;;;;10.32;74.20;100118.03;6280670;22;20061;-87
2022/11/11 14:34:29;;;;;;;10.10;5.78;;;;;;;10.35;73.68;100120.19;6252970;22;20020;-91
2022/11/11 14:37:51;;;;;;;18.20;7.07;;;;;;;9.88;73.73;100049.94;6276749;22;20103;-91
2022/11/11 14:40:36;;;;;;;12.70;6.35;;;;;;;10.26;73.81;100118.38;6228211;22;20023;-89
2022/11/11 14:43:39;;;;;;;13.30;7.50;;;;;;;9.96;73.31;100040.28;6251945;22;20019;-92
2022/11/11 14:46:24;;;;;;;14.65;8.25;;;;;;;10.29;73.28;100085.00;6253591;22;20016;-90
2022/11/11 14:49:09;;;;;;;12.02;7.05;;;;;;;10.26;73.44;100080.13;6281714;22;20102;-91
2022/11/11 14:52:28;;;;;;;16.65;7.57;;;;;;;10.13;73.21;100081.59;6257378;22;20019;-87
2022/11/11 14:55:22;;;;;;;15.30;7.13;;;;;;;10.06;72.96;100075.69;6263213;22;20358;-90
2022/11/11 14:58:18;;;;;;;13.93;5.78;;;;;;;10.23;72.53;100111.56;6235227;22;20019;-89
2022/11/11 15:01:13;;;;;;;;;;;;;;;10.24;72.29;100110.44;6261899;22;20040;-90
2022/11/11 15:04:02;;;;;;;11.50;6.03;;;;;;;10.03;72.77;100079.81;6260994;22;19915;-89
2022/11/11 15:06:58;;;;;;;12.80;6.68;;;;;;;10.10;72.90;100071.28;6253210;22;20023;-92
2022/11/11 15:10:03;;;;;;;16.48;7.50;;;;;;;10.20;72.52;100078.53;6280008;22;20008;-91